Time;durP1;ratioP1;P1;durP2;ratioP2;P2;SDS_P1;SDS_P2;PMS_P1;PMS_P2;Temp;Humidity;BMP_temperature;BMP_pressure;BME280_temperature;BME280_humidity;BME280_pressure;Samples;Min_cycle;Max_cycle;Signal;HPM_P1;HPM_P2
2021/06/20 00:01:48;;;;;;;10.83;7.73;;;;;;;21.67;57.43;100127.25;153969;1101;103243;-73
2021/06/20 00:04:53;;;;;;;8.30;7.40;;;;;;;21.59;58.48;100124.83;153962;1101;103137;-74
2021/06/20 00:07:59;;;;;;;8.47;7.67;;;;;;;21.55;58.28;100124.45;153982;1101;103222;-74
2021/06/20 00:11:04;;;;;;;8.47;7.67;;;;;;;21.46;58.66;100119.56;153952;1093;103298;-74
2021/06/20 00:14:10;;;;;;;9.13;7.80;;;;;;;21.38;58.77;100123.39;153985;1093;103162;-73
2021/06/20 00:17:16;;;;;;;9.00;8.20;;;;;;;21.30;58.88;100120.98;153985;1093;103134;-74
2021/06/20 00:20:23;;;;;;;9.10;8.13;;;;;;;21.20;58.69;100121.52;153992;1093;103188;-73
2021/06/20 00:23:28;;;;;;;8.20;7.03;;;;;;;21.13;59.11;100126.19;154001;1093;103144;-74
2021/06/20 00:26:34;;;;;;;8.20;7.40;;;;;;;21.05;59.03;100121.06;154009;1101;103233;-73
2021/06/20 00:29:39;;;;;;;9.83;8.83;;;;;;;21.03;59.38;100120.47;153999;1101;103112;-73
2021/06/20 00:32:45;;;;;;;9.03;8.23;;;;;;;20.99;59.30;100120.91;153987;1101;103187;-74
2021/06/20 00:35:50;;;;;;;9.33;8.43;;;;;;;20.99;59.31;100111.94;153903;1093;103129;-73
2021/06/20 00:38:55;;;;;;;8.87;8.07;;;;;;;20.97;59.28;100108.63;153983;1101;103100;-73
2021/06/20 00:42:00;;;;;;;10.30;7.80;;;;;;;20.90;59.56;100107.86;153958;1101;103617;-72
2021/06/20 00:45:07;;;;;;;8.50;7.70;;;;;;;20.81;59.46;100101.09;153955;1101;103138;-71
2021/06/20 00:48:13;;;;;;;10.17;8.03;;;;;;;20.72;59.50;100111.39;154032;1101;103154;-72
2021/06/20 00:51:18;;;;;;;9.40;8.43;;;;;;;20.65;59.76;100116.89;153940;1101;103163;-71
2021/06/20 00:54:23;;;;;;;8.27;7.43;;;;;;;20.57;59.87;100123.39;153859;1101;103183;-70
2021/06/20 00:57:29;;;;;;;9.70;7.00;;;;;;;20.51;59.95;100115.30;153867;1101;103260;-71
2021/06/20 01:00:35;;;;;;;8.13;7.33;;;;;;;20.49;59.94;100111.98;153900;1094;103119;-71
2021/06/20 01:03:40;;;;;;;8.57;7.70;;;;;;;20.47;59.85;100111.38;153976;1093;103112;-72
2021/06/20 01:06:46;;;;;;;8.43;7.63;;;;;;;20.42;60.03;100109.34;153968;1101;103135;-71
2021/06/20 01:09:52;;;;;;;8.43;7.63;;;;;;;20.40;60.19;100108.74;154002;1101;103250;-71
2021/06/20 01:12:58;;;;;;;8.57;7.67;;;;;;;20.33;60.10;100111.48;153995;1093;103115;-71
2021/06/20 01:16:03;;;;;;;8.30;7.47;;;;;;;20.28;60.24;100102.36;153821;1101;103131;-71
2021/06/20 01:19:08;;;;;;;9.07;8.17;;;;;;;20.20;60.30;100112.41;153842;1101;103133;-68
2021/06/20 01:22:18;;;;;;;8.97;8.07;;;;;;;20.10;60.52;100105.84;153824;1093;103241;-71
2021/06/20 01:25:26;;;;;;;9.47;7.93;;;;;;;20.03;60.56;100102.34;153857;1094;103126;-71
2021/06/20 01:28:41;;;;;;;8.50;7.70;;;;;;;19.99;60.70;100091.11;153835;1094;103217;-71
2021/06/20 01:31:51;;;;;;;7.53;6.83;;;;;;;19.97;60.59;100091.32;153845;1101;103280;-72
2021/06/20 01:34:57;;;;;;;7.50;6.80;;;;;;;19.98;60.86;100087.58;153908;1093;103150;-72
2021/06/20 01:38:04;;;;;;;8.40;7.53;;;;;;;19.98;60.57;100103.83;154012;1101;103183;-72
2021/06/20 01:41:10;;;;;;;8.30;7.50;;;;;;;19.96;60.54;100100.52;154005;1101;103104;-72
2021/06/20 01:44:15;;;;;;;10.00;8.10;;;;;;;19.92;60.65;100091.17;153847;1094;103269;-71
2021/06/20 01:47:23;;;;;;;9.50;7.67;;;;;;;19.85;60.68;100092.27;153840;1101;103143;-71
2021/06/20 01:50:30;;;;;;;8.53;7.60;;;;;;;19.84;60.87;100085.17;153938;1101;103285;-72
2021/06/20 01:53:36;;;;;;;10.25;7.90;;;;;;;19.86;60.86;100085.78;154006;1101;103112;-73
2021/06/20 01:56:41;;;;;;;8.70;7.80;;;;;;;19.89;61.34;100083.47;153948;1094;103192;-73
2021/06/20 01:59:46;;;;;;;8.07;7.27;;;;;;;20.00;60.78;100074.65;153930;1101;103193;-73
2021/06/20 02:02:51;;;;;;;7.00;6.40;;;;;;;20.01;60.72;100070.05;154074;1093;103137;-70
2021/06/20 02:06:00;;;;;;;7.83;7.10;;;;;;;20.00;60.67;100062.99;153973;1101;103145;-72
2021/06/20 02:09:06;;;;;;;9.10;7.30;;;;;;;19.97;60.65;100053.41;153950;1101;103100;-73
2021/06/20 02:12:14;;;;;;;8.53;7.70;;;;;;;19.98;60.60;100062.38;153976;1093;103162;-72
2021/06/20 02:15:19;;;;;;;8.60;7.80;;;;;;;19.98;60.91;100071.33;154029;1093;103106;-70
2021/06/20 02:18:24;;;;;;;8.63;7.80;;;;;;;20.00;60.84;100071.94;153918;1101;103150;-73
2021/06/20 02:21:29;;;;;;;8.37;7.63;;;;;;;20.02;60.63;100070.91;153974;1093;103192;-72
2021/06/20 02:24:35;;;;;;;8.20;7.33;;;;;;;20.02;60.85;100079.03;153964;1094;103173;-72
2021/06/20 02:27:40;;;;;;;8.03;7.33;;;;;;;20.03;60.63;100075.26;153988;1101;103186;-71
2021/06/20 02:30:47;;;;;;;8.00;7.30;;;;;;;20.07;60.66;100079.18;153812;1093;103185;-72
2021/06/20 02:33:52;;;;;;;7.93;7.23;;;;;;;20.09;60.82;100075.22;154022;1101;103060;-72
2021/06/20 02:36:57;;;;;;;9.80;7.97;;;;;;;20.16;60.88;100064.32;153958;1101;103067;-72
2021/06/20 02:40:03;;;;;;;7.75;7.05;;;;;;;20.19;60.74;100066.60;153950;1101;103505;-72
2021/06/20 02:43:08;;;;;;;8.40;6.80;;;;;;;20.26;60.94;100067.35;153978;1093;103190;-70
2021/06/20 02:46:13;;;;;;;6.73;6.13;;;;;;;20.28;60.63;100076.09;153819;1101;103174;-71
2021/06/20 02:49:18;;;;;;;7.07;6.37;;;;;;;20.38;60.62;100081.86;153984;1093;103151;-71
2021/06/20 02:52:23;;;;;;;7.65;6.95;;;;;;;20.45;60.51;100079.08;153964;1101;103125;-71
2021/06/20 02:55:29;;;;;;;7.70;6.90;;;;;;;20.46;60.54;100079.89;153981;1101;103212;-72
2021/06/20 02:58:34;;;;;;;7.60;6.80;;;;;;;20.46;60.41;100080.75;153832;1093;103256;-71
2021/06/20 03:01:39;;;;;;;7.77;6.70;;;;;;;20.48;60.41;100081.35;153813;1101;103551;-70
2021/06/20 03:04:45;;;;;;;7.73;6.93;;;;;;;20.54;60.63;100095.90;153858;1101;103355;-71
2021/06/20 03:07:50;;;;;;;8.13;7.33;;;;;;;20.53;60.69;100089.63;153825;1093;103122;-70
2021/06/20 03:10:55;;;;;;;8.77;7.03;;;;;;;20.55;60.49;100083.98;153836;1101;103218;-71
2021/06/20 03:14:01;;;;;;;7.63;6.93;;;;;;;20.62;60.48;100090.22;153894;1093;103214;-72
2021/06/20 03:17:07;;;;;;;7.80;7.10;;;;;;;20.72;60.74;100082.38;153853;1093;103250;-72
2021/06/20 03:20:15;;;;;;;10.33;7.23;;;;;;;20.92;60.49;100079.48;154032;1101;103125;-70
2021/06/20 03:23:20;;;;;;;7.47;6.67;;;;;;;21.18;60.15;100074.80;153879;1094;103128;-71
2021/06/20 03:26:25;;;;;;;6.70;6.10;;;;;;;21.55;60.51;100077.48;154024;1093;103132;-72
2021/06/20 03:29:31;;;;;;;6.17;5.57;;;;;;;21.98;60.32;100078.33;154002;1094;103125;-72
2021/06/20 03:32:36;;;;;;;10.77;6.23;;;;;;;22.38;59.94;100083.16;153831;1093;103259;-70
2021/06/20 03:35:41;;;;;;;6.13;5.63;;;;;;;22.76;59.73;100090.02;153856;1093;103150;-71
2021/06/20 03:38:46;;;;;;;5.90;5.30;;;;;;;23.15;59.37;100093.89;153964;1101;103224;-71
2021/06/20 03:41:52;;;;;;;6.77;6.17;;;;;;;23.47;59.15;100086.10;153867;1094;103226;-72
2021/06/20 03:44:57;;;;;;;6.33;5.73;;;;;;;23.69;58.67;100086.27;154054;1093;103186;-71
2021/06/20 03:48:02;;;;;;;6.50;5.33;;;;;;;23.96;58.80;100087.57;153969;1094;103230;-73
2021/06/20 03:51:08;;;;;;;5.87;5.30;;;;;;;24.26;58.66;100071.72;154002;1101;103221;-73
2021/06/20 03:54:13;;;;;;;5.67;5.17;;;;;;;24.53;57.69;100065.63;154022;1094;103467;-73
2021/06/20 03:57:20;;;;;;;6.23;5.63;;;;;;;24.79;57.85;100064.10;153935;1101;103221;-73
2021/06/20 04:00:25;;;;;;;5.60;5.10;;;;;;;24.97;57.59;100067.61;154003;1094;103184;-72
2021/06/20 04:03:30;;;;;;;7.30;4.90;;;;;;;25.14;57.25;100081.20;153947;1101;104169;-72
2021/06/20 04:06:35;;;;;;;5.40;4.90;;;;;;;25.28;57.06;100066.92;154008;1101;103227;-71
2021/06/20 04:09:41;;;;;;;5.30;4.80;;;;;;;25.39;57.10;100067.06;153943;1101;103209;-72
2021/06/20 04:12:46;;;;;;;5.43;4.90;;;;;;;25.50;56.80;100059.78;153956;1101;103189;-72
2021/06/20 04:15:51;;;;;;;5.30;4.80;;;;;;;25.64;56.46;100069.24;154016;1093;103123;-72
2021/06/20 04:18:57;;;;;;;4.90;4.50;;;;;;;25.80;56.20;100073.77;153991;1093;103206;-71
2021/06/20 04:22:03;;;;;;;6.33;4.50;;;;;;;25.94;55.97;100065.17;153938;1101;103124;-71
2021/06/20 04:25:12;;;;;;;4.77;4.37;;;;;;;26.01;55.72;100063.05;153877;1101;103544;-71
2021/06/20 04:28:19;;;;;;;5.27;4.57;;;;;;;26.03;55.18;100048.03;153956;1101;103119;-72
2021/06/20 04:31:24;;;;;;;5.50;4.70;;;;;;;26.08;55.49;100050.00;153993;1101;103192;-72
2021/06/20 04:34:30;;;;;;;5.57;4.60;;;;;;;26.16;54.95;100054.98;153934;1093;103276;-72
2021/06/20 04:37:35;;;;;;;5.87;4.50;;;;;;;26.25;54.74;100060.77;153985;1093;103109;-72
2021/06/20 04:40:41;;;;;;;5.00;4.60;;;;;;;26.31;54.69;100061.64;153808;1101;103652;-73
2021/06/20 04:44:01;;;;;;;4.80;4.40;;;;;;;26.37;54.67;100063.34;154036;1093;103099;-76
2021/06/20 04:47:06;;;;;;;4.97;4.47;;;;;;;26.44;54.49;100066.66;154014;1093;103131;-76
2021/06/20 04:50:13;;;;;;;4.85;4.45;;;;;;;26.45;54.23;100065.59;153987;1093;103275;-73
2021/06/20 04:53:18;;;;;;;5.17;4.40;;;;;;;26.49;53.85;100068.63;153996;1101;103192;-72
2021/06/20 04:56:23;;;;;;;4.63;4.23;;;;;;;26.52;53.63;100063.45;153974;1101;103191;-72
2021/06/20 04:59:29;;;;;;;4.37;3.97;;;;;;;26.59;53.62;100058.58;153984;1101;103191;-72
2021/06/20 05:02:34;;;;;;;4.30;4.00;;;;;;;26.60;53.00;100054.77;154031;1101;103199;-71
2021/06/20 05:05:39;;;;;;;5.00;4.13;;;;;;;26.67;53.24;100053.70;153851;1101;103190;-71
2021/06/20 05:08:44;;;;;;;4.70;4.30;;;;;;;26.63;52.79;100051.48;153961;1101;103132;-72
2021/06/20 05:11:49;;;;;;;4.33;3.93;;;;;;;26.66;53.04;100060.25;153982;1101;103191;-72
2021/06/20 05:14:54;;;;;;;4.67;4.07;;;;;;;26.66;52.55;100058.36;153952;1101;103305;-72
2021/06/20 05:17:59;;;;;;;4.63;4.23;;;;;;;26.65;52.50;100062.17;154011;1093;103259;-72
2021/06/20 05:21:05;;;;;;;4.80;4.10;;;;;;;26.66;52.49;100068.47;153955;1093;103233;-72
2021/06/20 05:24:12;;;;;;;4.30;3.65;;;;;;;26.72;52.36;100067.43;153993;1094;103132;-72
2021/06/20 05:27:17;;;;;;;4.30;3.90;;;;;;;26.74;52.15;100065.25;153974;1093;103589;-72
2021/06/20 05:30:24;;;;;;;4.27;3.87;;;;;;;26.72;51.85;100062.77;153973;1093;103125;-72
2021/06/20 05:33:29;;;;;;;4.73;4.10;;;;;;;26.69;51.63;100065.22;153988;1093;103163;-71
2021/06/20 05:36:34;;;;;;;4.00;3.70;;;;;;;26.67;51.66;100064.66;153991;1101;103230;-74
2021/06/20 05:39:39;;;;;;;6.17;4.30;;;;;;;26.68;51.33;100055.37;154027;1101;103184;-73
2021/06/20 05:42:44;;;;;;;4.77;4.37;;;;;;;26.67;51.27;100049.05;153985;1101;103196;-73
2021/06/20 05:45:49;;;;;;;4.43;4.03;;;;;;;26.69;51.24;100052.34;153987;1093;103115;-74
2021/06/20 05:48:54;;;;;;;6.63;3.90;;;;;;;26.70;51.52;100036.77;154122;1101;103180;-70
2021/06/20 05:51:59;;;;;;;4.20;3.80;;;;;;;26.70;51.32;100048.53;153848;1093;103298;-71
2021/06/20 05:55:06;;;;;;;4.50;4.10;;;;;;;26.63;51.04;100053.41;154106;1101;103214;-73
2021/06/20 05:58:11;;;;;;;4.53;3.90;;;;;;;26.54;51.22;100061.27;154089;1101;103113;-72
2021/06/20 06:01:16;;;;;;;4.40;3.93;;;;;;;26.41;50.92;100068.02;154033;1101;103515;-74
2021/06/20 06:04:23;;;;;;;4.85;3.70;;;;;;;26.40;51.18;100071.02;154036;1101;103171;-73
2021/06/20 06:07:29;;;;;;;4.27;3.83;;;;;;;26.38;51.20;100074.00;154036;1096;103229;-75
2021/06/20 06:10:34;;;;;;;4.00;3.60;;;;;;;26.39;50.89;100059.25;154159;1101;103236;-75
2021/06/20 06:13:39;;;;;;;4.10;3.70;;;;;;;26.44;51.04;100059.30;154352;1101;103200;-74
2021/06/20 06:16:44;;;;;;;3.60;3.30;;;;;;;26.49;50.58;100069.44;154163;1096;103198;-72
2021/06/20 06:19:49;;;;;;;3.60;3.30;;;;;;;26.50;50.62;100073.81;154093;1093;103493;-73
2021/06/20 06:22:55;;;;;;;4.03;3.60;;;;;;;26.52;50.55;100084.50;154131;1095;103131;-73
2021/06/20 06:26:00;;;;;;;3.63;3.33;;;;;;;26.57;50.83;100090.02;153968;1101;103129;-72
2021/06/20 06:29:06;;;;;;;3.77;3.47;;;;;;;26.59;50.13;100096.08;154343;1095;103119;-71
2021/06/20 06:32:12;;;;;;;3.77;3.40;;;;;;;26.62;50.28;100090.09;154304;1095;103123;-72
2021/06/20 06:35:17;;;;;;;4.83;3.50;;;;;;;26.62;50.27;100093.64;154043;1093;103233;-72
2021/06/20 06:38:23;;;;;;;3.53;3.23;;;;;;;26.60;49.98;100095.82;153916;1101;103292;-73
2021/06/20 06:41:28;;;;;;;3.57;3.10;;;;;;;26.61;50.12;100100.19;154001;1101;103186;-72
2021/06/20 06:44:33;;;;;;;3.75;3.35;;;;;;;26.63;49.49;100087.06;153987;1101;103109;-73
2021/06/20 06:47:38;;;;;;;5.63;4.40;;;;;;;26.63;49.26;100084.33;153980;1096;103190;-73
2021/06/20 06:50:44;;;;;;;3.60;3.30;;;;;;;26.62;49.79;100077.22;153968;1095;103143;-73
2021/06/20 06:53:49;;;;;;;4.27;3.47;;;;;;;26.64;49.29;100075.05;153963;1101;103217;-73
2021/06/20 06:56:54;;;;;;;3.77;3.30;;;;;;;26.67;49.32;100092.02;153989;1101;103122;-75
2021/06/20 07:00:00;;;;;;;5.27;3.50;;;;;;;26.68;49.16;100085.48;153982;1101;103167;-73
2021/06/20 07:03:05;;;;;;;3.57;3.27;;;;;;;26.70;48.98;100077.83;153970;1101;103559;-72
2021/06/20 07:06:11;;;;;;;3.83;3.53;;;;;;;26.75;49.06;100077.83;153965;1101;103143;-72
2021/06/20 07:09:19;;;;;;;4.20;3.57;;;;;;;26.76;48.79;100076.76;154000;1101;103193;-74
2021/06/20 07:12:24;;;;;;;3.73;3.43;;;;;;;26.76;48.67;100084.97;154051;1101;103227;-76
2021/06/20 07:15:30;;;;;;;4.47;3.40;;;;;;;26.79;48.97;100079.80;154019;1095;103217;-75
2021/06/20 07:18:35;;;;;;;5.17;3.57;;;;;;;26.84;49.10;100078.98;153980;1101;103489;-73
2021/06/20 07:21:40;;;;;;;4.83;3.40;;;;;;;26.91;48.79;100076.84;154029;1096;103488;-72
2021/06/20 07:24:45;;;;;;;4.10;3.30;;;;;;;26.95;48.52;100079.88;153948;1096;103742;-73
2021/06/20 07:27:51;;;;;;;4.75;3.50;;;;;;;27.01;48.83;100078.80;153998;1096;103189;-73
2021/06/20 07:30:56;;;;;;;10.43;3.60;;;;;;;27.10;48.65;100087.32;154014;1096;103157;-73
2021/06/20 07:34:01;;;;;;;3.80;3.50;;;;;;;27.15;48.40;100074.47;154040;1096;103121;-72
2021/06/20 07:37:07;;;;;;;4.00;3.60;;;;;;;27.21;48.48;100075.31;154062;1101;103252;-73
2021/06/20 07:40:14;;;;;;;3.57;3.27;;;;;;;27.24;48.48;100077.53;153979;1095;103195;-73
2021/06/20 07:43:21;;;;;;;4.03;3.37;;;;;;;27.26;47.98;100083.59;154125;1101;103223;-72
2021/06/20 07:46:27;;;;;;;5.63;3.43;;;;;;;27.27;47.65;100084.41;154048;1096;103129;-72
2021/06/20 07:49:32;;;;;;;3.03;2.73;;;;;;;27.26;48.05;100077.30;154166;1101;104037;-71
2021/06/20 07:52:37;;;;;;;5.00;3.20;;;;;;;27.32;47.81;100071.56;153943;1101;103192;-72
2021/06/20 07:55:42;;;;;;;4.47;3.40;;;;;;;27.34;47.74;100066.63;153998;1093;103536;-71
2021/06/20 07:58:48;;;;;;;4.10;3.50;;;;;;;27.42;47.67;100071.58;154155;1101;103112;-72
2021/06/20 08:01:53;;;;;;;4.03;3.40;;;;;;;27.47;47.23;100064.49;154152;1101;103129;-72
2021/06/20 08:04:58;;;;;;;3.50;3.20;;;;;;;27.49;47.43;100059.56;154019;1101;103148;-72
2021/06/20 08:08:03;;;;;;;4.47;3.67;;;;;;;27.53;47.49;100066.14;154048;1096;103569;-72
2021/06/20 08:11:08;;;;;;;3.70;3.37;;;;;;;27.59;47.50;100062.31;154096;1101;103267;-72
2021/06/20 08:14:14;;;;;;;4.60;3.30;;;;;;;27.68;47.52;100068.92;154131;1096;103210;-72
2021/06/20 08:17:19;;;;;;;4.30;3.25;;;;;;;27.71;47.10;100073.03;154044;1093;103107;-73
2021/06/20 08:20:24;;;;;;;3.47;3.10;;;;;;;27.76;47.55;100070.30;154019;1096;103329;-74
2021/06/20 08:23:30;;;;;;;3.93;3.10;;;;;;;27.84;47.15;100071.69;154095;1101;103244;-74
2021/06/20 08:26:35;;;;;;;3.30;3.00;;;;;;;27.90;47.53;100057.72;154070;1101;103378;-73
2021/06/20 08:29:40;;;;;;;4.33;3.30;;;;;;;27.96;47.36;100067.59;154178;1093;103132;-72
2021/06/20 08:32:45;;;;;;;3.50;3.20;;;;;;;28.03;47.02;100061.03;154027;1101;103112;-73
2021/06/20 08:35:50;;;;;;;3.90;3.20;;;;;;;28.11;47.17;100055.81;154025;1101;103108;-73
2021/06/20 08:38:55;;;;;;;3.90;3.50;;;;;;;28.09;46.49;100066.23;154194;1101;103214;-73
2021/06/20 08:42:01;;;;;;;4.00;3.27;;;;;;;28.07;46.61;100065.69;154095;1094;103192;-73
2021/06/20 08:45:07;;;;;;;5.57;3.13;;;;;;;28.11;46.41;100055.81;154039;1101;103211;-73
2021/06/20 08:48:14;;;;;;;3.10;2.80;;;;;;;28.14;46.58;100048.97;154124;1096;103110;-73
2021/06/20 08:51:19;;;;;;;4.53;2.90;;;;;;;28.17;46.32;100045.66;154050;1101;103222;-73
2021/06/20 08:54:25;;;;;;;3.13;2.83;;;;;;;28.21;45.94;100049.50;154007;1101;103161;-73
2021/06/20 08:57:34;;;;;;;3.47;3.00;;;;;;;28.22;45.78;100051.16;154110;1096;103233;-73
2021/06/20 09:00:39;;;;;;;3.50;3.20;;;;;;;28.24;45.82;100050.89;154069;1095;103198;-72
2021/06/20 09:03:46;;;;;;;3.00;2.80;;;;;;;28.28;45.99;100054.72;154065;1095;103098;-73
2021/06/20 09:06:52;;;;;;;3.40;3.10;;;;;;;28.32;45.54;100050.32;154079;1101;103099;-73
2021/06/20 09:10:08;;;;;;;4.00;2.90;;;;;;;28.35;45.70;100045.11;154076;1096;103217;-73
2021/06/20 09:13:14;;;;;;;2.87;2.63;;;;;;;28.40;45.27;100052.50;153995;1101;103374;-72
2021/06/20 09:16:21;;;;;;;3.20;2.90;;;;;;;28.42;45.35;100049.48;154034;1101;103107;-72
2021/06/20 09:19:34;;;;;;;4.80;3.20;;;;;;;28.43;45.36;100054.70;154019;1101;103256;-73
2021/06/20 09:22:39;;;;;;;4.67;2.60;;;;;;;28.44;45.01;100045.35;154120;1101;103215;-73
2021/06/20 09:25:46;;;;;;;3.45;2.50;;;;;;;28.50;43.97;100043.42;154016;1096;103263;-73
2021/06/20 09:28:53;;;;;;;3.00;2.60;;;;;;;28.56;45.16;100047.83;154060;1101;103261;-73
2021/06/20 09:31:59;;;;;;;3.30;2.40;;;;;;;28.64;44.44;100043.69;154163;1094;103120;-72
2021/06/20 09:35:07;;;;;;;3.23;2.57;;;;;;;28.72;44.63;100034.91;154065;1094;103096;-73
2021/06/20 09:38:21;;;;;;;3.15;2.60;;;;;;;28.80;44.70;100030.77;154069;1095;103129;-73
2021/06/20 09:41:26;;;;;;;3.63;2.60;;;;;;;28.77;44.33;100045.85;154065;1094;103263;-73
2021/06/20 09:44:41;;;;;;;2.97;2.30;;;;;;;28.77;43.77;100032.12;154065;1096;103310;-72
2021/06/20 09:47:46;;;;;;;2.83;2.10;;;;;;;28.84;43.75;100027.16;154099;1096;103130;-73
2021/06/20 09:50:52;;;;;;;3.07;2.67;;;;;;;28.88;43.67;100022.75;154221;1101;103249;-73
2021/06/20 09:53:57;;;;;;;3.83;2.70;;;;;;;28.92;43.36;100020.27;154061;1101;103130;-73
2021/06/20 09:57:04;;;;;;;3.23;2.40;;;;;;;28.93;43.15;100009.00;154086;1095;103119;-73
2021/06/20 10:00:11;;;;;;;2.30;2.10;;;;;;;28.95;43.30;100004.05;154088;1096;103122;-73
2021/06/20 10:03:26;;;;;;;3.00;2.47;;;;;;;29.00;42.97;99989.45;154047;1101;103128;-72
2021/06/20 10:06:32;;;;;;;3.53;2.57;;;;;;;29.02;42.81;99994.67;154018;1101;103192;-73
2021/06/20 10:09:39;;;;;;;4.63;2.40;;;;;;;29.01;42.91;99984.80;154075;1101;103142;-73
2021/06/20 10:12:44;;;;;;;2.20;2.00;;;;;;;29.00;42.75;99977.66;154038;1101;103214;-73
2021/06/20 10:15:49;;;;;;;2.50;2.30;;;;;;;29.04;42.24;99979.55;154002;1101;103180;-73
2021/06/20 10:18:57;;;;;;;2.18;2.00;;;;;;;29.10;42.11;99963.85;154096;1101;103214;-73
2021/06/20 10:22:06;;;;;;;2.47;1.77;;;;;;;29.14;42.14;99959.49;154123;1093;103112;-73
2021/06/20 10:25:24;;;;;;;2.20;2.00;;;;;;;29.18;41.52;99966.06;154031;1101;103187;-73
2021/06/20 10:28:34;;;;;;;2.03;1.88;;;;;;;29.22;40.84;99953.39;154142;1093;103339;-73
2021/06/20 10:31:39;;;;;;;2.70;1.83;;;;;;;29.26;41.56;99962.70;154067;1101;103112;-73
2021/06/20 10:34:57;;;;;;;2.67;1.80;;;;;;;29.24;41.62;99947.61;154091;1093;103159;-73
2021/06/20 10:38:02;;;;;;;3.65;1.70;;;;;;;29.23;40.25;99945.95;154014;1093;103579;-73
2021/06/20 10:41:20;;;;;;;2.70;1.50;;;;;;;29.25;40.43;99939.06;153957;1101;103123;-73
2021/06/20 10:44:25;;;;;;;5.57;1.40;;;;;;;29.34;40.59;99948.34;154101;1094;104141;-73
2021/06/20 10:47:32;;;;;;;1.90;1.10;;;;;;;29.38;39.55;99936.80;154079;1093;103486;-73
2021/06/20 10:50:42;;;;;;;2.13;1.30;;;;;;;29.43;39.66;99937.58;154138;1094;103273;-73
2021/06/20 10:53:47;;;;;;;3.10;1.40;;;;;;;29.51;39.35;99927.90;153979;1101;103140;-73
2021/06/20 10:57:01;;;;;;;2.37;1.50;;;;;;;29.48;39.44;99931.20;153975;1101;103195;-74
2021/06/20 11:00:09;;;;;;;1.10;1.08;;;;;;;29.51;39.65;99925.15;154042;1101;103259;-73
2021/06/20 11:03:15;;;;;;;4.20;1.70;;;;;;;29.60;39.28;99923.43;153985;1101;103319;-73
2021/06/20 11:06:22;;;;;;;1.70;1.60;;;;;;;29.64;39.18;99920.89;154032;1101;103208;-73
2021/06/20 11:09:37;;;;;;;4.35;1.75;;;;;;;29.69;39.22;99924.42;153947;1101;103215;-73
2021/06/20 11:12:42;;;;;;;2.30;2.00;;;;;;;29.73;39.58;99924.70;154009;1101;103592;-73
2021/06/20 11:15:47;;;;;;;2.63;2.00;;;;;;;29.73;39.40;99925.52;154056;1093;103201;-73
2021/06/20 11:19:07;;;;;;;2.20;2.00;;;;;;;29.74;38.59;99927.17;154079;1093;103285;-73
2021/06/20 11:22:15;;;;;;;2.20;2.00;;;;;;;29.75;38.97;99923.33;153997;1101;103564;-73
2021/06/20 11:25:27;;;;;;;2.25;2.05;;;;;;;29.79;38.95;99929.04;153989;1101;103147;-73
2021/06/20 11:28:32;;;;;;;3.03;2.10;;;;;;;29.83;39.00;99916.38;153993;1101;103553;-72
2021/06/20 11:31:49;;;;;;;2.63;2.43;;;;;;;29.84;39.02;99908.94;153994;1101;103200;-73
2021/06/20 11:34:58;;;;;;;2.85;2.50;;;;;;;29.84;39.10;99904.25;153960;1093;103285;-73
2021/06/20 11:38:03;;;;;;;2.60;2.40;;;;;;;29.86;38.87;99901.22;153997;1093;103192;-73
2021/06/20 11:41:14;;;;;;;3.57;2.87;;;;;;;29.91;39.19;99901.17;153970;1101;103107;-73
2021/06/20 11:44:20;;;;;;;4.75;2.80;;;;;;;29.94;39.02;99901.38;154050;1101;103278;-74
2021/06/20 11:47:34;;;;;;;2.70;2.28;;;;;;;29.95;38.17;99896.73;153995;1101;103170;-73
2021/06/20 11:50:41;;;;;;;5.08;2.60;;;;;;;30.01;39.22;99887.30;153937;1101;103261;-73
2021/06/20 11:53:46;;;;;;;2.60;2.40;;;;;;;30.06;38.99;99892.76;154042;1101;103211;-73
2021/06/20 11:56:54;;;;;;;3.30;2.60;;;;;;;30.11;38.69;99892.69;153977;1093;103131;-75
2021/06/20 12:00:09;;;;;;;4.20;3.00;;;;;;;30.15;38.75;99899.23;153940;1101;103174;-73
2021/06/20 12:03:23;;;;;;;3.67;2.63;;;;;;;30.16;38.91;99891.83;154042;1094;103261;-73
2021/06/20 12:06:30;;;;;;;2.50;2.30;;;;;;;30.22;39.09;99903.59;153931;1093;103225;-73
2021/06/20 12:09:36;;;;;;;4.57;2.20;;;;;;;30.23;38.88;99889.52;154048;1101;103553;-73
2021/06/20 12:12:42;;;;;;;3.18;2.50;;;;;;;30.26;38.63;99896.39;153954;1101;103197;-73
2021/06/20 12:15:47;;;;;;;3.83;2.70;;;;;;;30.30;38.98;99889.18;153947;1101;103140;-73
2021/06/20 12:18:53;;;;;;;4.43;2.88;;;;;;;30.32;38.68;99886.98;153991;1101;103171;-74
2021/06/20 12:22:15;;;;;;;2.85;2.55;;;;;;;30.34;38.97;99882.00;154022;1093;103294;-73
2021/06/20 12:25:21;;;;;;;4.55;2.68;;;;;;;30.37;38.10;99877.83;154019;1093;103264;-73
2021/06/20 12:28:26;;;;;;;3.07;2.77;;;;;;;30.34;38.72;99879.25;153978;1093;103117;-74
2021/06/20 12:31:32;;;;;;;3.90;2.60;;;;;;;30.42;38.87;99875.02;153913;1093;103139;-72
2021/06/20 12:34:45;;;;;;;2.90;2.60;;;;;;;30.43;38.53;99874.73;154039;1101;103303;-78
2021/06/20 12:37:52;;;;;;;3.93;3.05;;;;;;;30.42;38.21;99864.82;154075;1094;103196;-78
2021/06/20 12:40:57;;;;;;;2.93;2.60;;;;;;;30.42;38.29;99853.00;154022;1101;103240;-77
2021/06/20 12:44:06;;;;;;;4.40;2.70;;;;;;;30.47;37.98;99861.20;153964;1101;103193;-76
2021/06/20 12:47:12;;;;;;;3.80;2.90;;;;;;;30.49;38.12;99842.45;154002;1101;103115;-76
2021/06/20 12:50:26;;;;;;;3.30;2.60;;;;;;;30.49;38.00;99846.02;154033;1101;103283;-77
2021/06/20 12:53:33;;;;;;;3.33;2.70;;;;;;;30.49;37.93;99837.76;153975;1093;103287;-77
2021/06/20 12:56:39;;;;;;;4.25;2.80;;;;;;;30.49;38.14;99832.25;154054;1093;103183;-77
2021/06/20 12:59:45;;;;;;;2.70;2.50;;;;;;;30.51;37.86;99827.27;153959;1101;103119;-76
2021/06/20 13:02:54;;;;;;;4.88;2.60;;;;;;;30.49;37.86;99840.52;153950;1093;103136;-76
2021/06/20 13:06:02;;;;;;;4.00;2.70;;;;;;;30.50;37.87;99839.38;154188;1093;103166;-77
2021/06/20 13:09:08;;;;;;;4.73;2.47;;;;;;;30.46;37.41;99840.28;153988;1093;103416;-76
2021/06/20 13:12:14;;;;;;;3.67;2.80;;;;;;;30.51;37.45;99845.73;154013;1101;103490;-78
2021/06/20 13:15:20;;;;;;;3.63;2.53;;;;;;;30.56;37.63;99842.07;153957;1094;103141;-76
2021/06/20 13:18:26;;;;;;;3.37;2.63;;;;;;;30.58;37.13;99835.14;153973;1093;103102;-76
2021/06/20 13:21:31;;;;;;;3.30;2.53;;;;;;;30.62;37.30;99829.86;153970;1101;103190;-76
2021/06/20 13:24:37;;;;;;;3.43;2.77;;;;;;;30.62;37.24;99843.63;153983;1094;103253;-75
2021/06/20 13:27:43;;;;;;;4.07;2.40;;;;;;;30.67;37.25;99857.34;154002;1093;103142;-76
2021/06/20 13:30:48;;;;;;;2.60;2.40;;;;;;;30.70;36.92;99854.00;154010;1093;103120;-76
2021/06/20 13:33:55;;;;;;;4.00;2.67;;;;;;;30.69;36.88;99841.34;153979;1101;103243;-76
2021/06/20 13:37:00;;;;;;;3.93;2.80;;;;;;;30.71;36.79;99836.34;153955;1101;103275;-76
2021/06/20 13:40:08;;;;;;;2.43;2.20;;;;;;;30.73;36.64;99839.63;153942;1101;103217;-76
2021/06/20 13:43:13;;;;;;;3.13;2.83;;;;;;;30.71;36.44;99828.89;154024;1101;103196;-76
2021/06/20 13:46:18;;;;;;;4.40;2.70;;;;;;;30.70;36.67;99834.73;153952;1101;103113;-76
2021/06/20 13:49:24;;;;;;;4.60;2.77;;;;;;;30.68;36.66;99834.20;153905;1101;103121;-76
2021/06/20 13:52:29;;;;;;;3.67;2.90;;;;;;;30.57;36.92;99852.80;153951;1093;103297;-76
2021/06/20 13:55:34;;;;;;;2.80;2.60;;;;;;;30.61;36.64;99844.77;153954;1093;103163;-75
2021/06/20 13:58:39;;;;;;;5.43;2.43;;;;;;;30.67;36.54;99838.88;154034;1101;103191;-76
2021/06/20 14:01:44;;;;;;;4.68;2.60;;;;;;;30.78;36.37;99834.05;153997;1093;103121;-76
2021/06/20 14:04:50;;;;;;;3.87;2.50;;;;;;;30.82;36.41;99846.10;153961;1093;103560;-75
2021/06/20 14:07:55;;;;;;;2.80;2.60;;;;;;;30.85;36.09;99831.74;154060;1093;103511;-76
2021/06/20 14:11:00;;;;;;;3.85;2.60;;;;;;;30.90;36.00;99831.67;153966;1093;103505;-76